createdAt,value
2018-04-15T00:04:26.771Z,5.33
2018-04-15T00:10:17.482Z,7.19
2018-04-15T00:16:08.204Z,4.17
2018-04-15T00:21:58.977Z,6.94
2018-04-15T00:27:49.689Z,4.64
2018-04-15T00:33:40.383Z,3.87
2018-04-15T00:39:31.098Z,5.39
2018-04-15T00:45:21.774Z,4.62
2018-04-15T00:51:12.574Z,6.05
2018-04-15T00:57:03.212Z,3.84
2018-04-15T01:02:53.931Z,4.7
2018-04-15T01:08:44.647Z,5.82
2018-04-15T01:14:35.396Z,4.98
2018-04-15T01:20:26.062Z,6.74
2018-04-15T01:26:16.771Z,2.23
2018-04-15T01:32:07.498Z,4.04
2018-04-15T01:37:58.252Z,3.74
2018-04-15T01:43:48.960Z,4.91
2018-04-15T01:49:39.634Z,4.54
2018-04-15T01:55:30.417Z,2.62
2018-04-15T02:01:21.073Z,5.25
2018-04-15T02:07:11.789Z,5.62
2018-04-15T02:13:02.523Z,5.7
2018-04-15T02:18:53.228Z,2.46
2018-04-15T02:24:43.944Z,3.81
2018-04-15T02:30:34.659Z,3.98
2018-04-15T02:36:25.416Z,3.33
2018-04-15T02:42:16.083Z,6.81
2018-04-15T02:48:06.822Z,3.97
2018-04-15T02:53:57.546Z,4.74
2018-04-15T02:59:48.209Z,9.13
2018-04-15T03:05:38.957Z,3.69
2018-04-15T03:11:29.647Z,4.22
2018-04-15T03:17:20.317Z,10.65
2018-04-15T03:23:11.061Z,10.76
2018-04-15T03:29:01.730Z,5.33
2018-04-15T03:34:52.467Z,4.34
2018-04-15T03:40:43.152Z,6.21
2018-04-15T03:46:33.925Z,5.3
2018-04-15T03:52:24.586Z,3.44
2018-04-15T03:58:15.321Z,11.37
2018-04-15T04:04:06.053Z,3.65
2018-04-15T04:09:56.760Z,3.9
2018-04-15T04:15:47.468Z,5.24
2018-04-15T04:21:38.166Z,5.7
2018-04-15T04:27:28.919Z,3.33
2018-04-15T04:33:19.604Z,14.23
2018-04-15T04:39:10.316Z,8.51
2018-04-15T04:45:01.078Z,11.1
2018-04-15T04:50:51.732Z,9.04
2018-04-15T04:56:42.472Z,5.72
2018-04-15T05:02:33.174Z,5.69
2018-04-15T05:08:23.853Z,5.49
2018-04-15T05:14:14.593Z,8
2018-04-15T05:20:05.327Z,6.87
2018-04-15T05:25:56.037Z,6.56
2018-04-15T05:31:46.717Z,9.14
2018-04-15T05:37:37.483Z,8.96
2018-04-15T05:43:28.152Z,8.21
2018-04-15T05:49:18.859Z,7.35
2018-04-15T05:55:09.539Z,8.63
2018-04-15T06:01:00.298Z,6.17
2018-04-15T06:06:50.951Z,7.78
2018-04-15T06:12:41.708Z,7.26
2018-04-15T06:18:32.397Z,9.75
2018-04-15T06:24:23.125Z,10.6
2018-04-15T06:30:13.812Z,7.3
2018-04-15T06:36:04.568Z,5.39
2018-04-15T06:41:55.271Z,7.02
2018-04-15T06:47:46.008Z,6.55
2018-04-15T06:53:36.675Z,5.09
2018-04-15T06:59:27.377Z,14.19
2018-04-15T07:05:18.130Z,8.68
2018-04-15T07:11:08.871Z,10.24
2018-04-15T07:16:59.608Z,7.62
2018-04-15T07:22:50.239Z,8.02
2018-04-15T07:28:41.022Z,5.76
2018-04-15T07:34:31.675Z,6.49
2018-04-15T07:40:22.411Z,8.43
2018-04-15T07:46:13.117Z,8.59
2018-04-15T07:52:03.813Z,8.61
2018-04-15T07:57:54.557Z,7.58
2018-04-15T08:03:45.277Z,6.36
2018-04-15T08:09:35.928Z,9.38
2018-04-15T08:15:26.671Z,10.4
2018-04-15T08:21:17.413Z,8.84
2018-04-15T08:27:08.129Z,7.82
2018-04-15T08:32:58.823Z,7.51
2018-04-15T08:38:49.524Z,11.46
2018-04-15T08:44:40.236Z,6.62
2018-04-15T08:50:30.914Z,6.62
2018-04-15T08:56:21.704Z,9.04
2018-04-15T09:02:12.374Z,6.18
2018-04-15T09:08:03.083Z,5.34
2018-04-15T09:13:53.831Z,5.59
2018-04-15T09:19:44.546Z,7.12
2018-04-15T09:25:35.225Z,8.31
2018-04-15T09:31:25.925Z,11.97
2018-04-15T09:37:16.631Z,11.98
2018-04-15T09:43:07.398Z,7.03
2018-04-15T09:48:58.102Z,7.24
2018-04-15T09:54:48.784Z,8.27
2018-04-15T10:00:39.912Z,10.81
2018-04-15T10:06:30.247Z,6.89
2018-04-15T10:12:20.967Z,6.21
2018-04-15T10:18:11.712Z,12.94
2018-04-15T10:24:02.430Z,13.85
2018-04-15T10:29:53.105Z,10.64
2018-04-15T10:35:43.812Z,10.71
2018-04-15T10:41:34.499Z,12.89
2018-04-15T10:47:25.207Z,15.9
2018-04-15T10:53:15.913Z,18.17
2018-04-15T10:59:06.629Z,9
2018-04-15T11:04:57.358Z,12.49
2018-04-15T11:10:48.093Z,11.02
2018-04-15T11:16:38.790Z,6.54
2018-04-15T11:22:29.568Z,14.77
2018-04-15T11:28:20.215Z,10.77
2018-04-15T11:34:10.936Z,7.37
2018-04-15T11:40:01.657Z,7.59
2018-04-15T11:45:52.426Z,10.93
2018-04-15T11:51:43.081Z,13.48
2018-04-15T11:57:33.807Z,13.65
2018-04-15T12:03:24.570Z,11.28
2018-04-15T12:09:18.386Z,18.09
2018-04-15T12:15:05.963Z,14.94
2018-04-15T12:20:56.756Z,15.96
2018-04-15T12:26:47.497Z,14.63
2018-04-15T12:32:38.116Z,15.56
2018-04-15T12:38:28.845Z,17.16
2018-04-15T12:44:19.547Z,17.3
2018-04-15T12:50:10.297Z,14.89
2018-04-15T12:56:00.956Z,18.66
2018-04-15T13:01:51.684Z,16.34
2018-04-15T13:07:42.415Z,25.46
2018-04-15T13:13:33.111Z,14.16
2018-04-15T13:19:23.789Z,15.17
2018-04-15T13:25:14.585Z,18.27
2018-04-15T13:31:05.254Z,16.58
2018-04-15T13:36:56.070Z,21.26
2018-04-15T13:42:46.682Z,24.58
2018-04-15T13:48:37.419Z,25.45
2018-04-15T13:54:28.192Z,15.66
2018-04-15T14:00:18.890Z,19.79
2018-04-15T14:06:09.591Z,19.11
2018-04-15T14:12:00.310Z,16.21
2018-04-15T14:17:51.086Z,18.67
2018-04-15T14:23:41.709Z,21.3
2018-04-15T14:29:32.491Z,22.96
2018-04-15T14:35:23.122Z,11.84
2018-04-15T14:41:13.878Z,19.16
2018-04-15T14:47:04.689Z,16.48
2018-04-15T14:52:55.267Z,13.15
2018-04-15T14:58:46.002Z,11.59
2018-04-15T15:04:36.748Z,14.74
2018-04-15T15:10:27.464Z,12.27
2018-04-15T15:16:18.138Z,13.6
2018-04-15T15:22:08.886Z,15.52
2018-04-15T15:27:59.571Z,25.24
2018-04-15T15:33:50.297Z,19.83
2018-04-15T15:39:41.017Z,23.02
2018-04-15T15:45:31.717Z,20.67
2018-04-15T15:53:51.538Z,16.64
2018-04-15T15:59:42.257Z,24.59
2018-04-15T16:05:33.000Z,18.22
2018-04-15T16:11:24.042Z,21.46
2018-04-15T16:17:14.421Z,20.51
2018-04-15T16:23:05.074Z,32.75
2018-04-15T16:28:55.842Z,13.62
2018-04-15T16:34:46.532Z,19.33
2018-04-15T16:40:37.254Z,20.11
2018-04-15T16:46:27.979Z,20.57
2018-04-15T16:52:18.650Z,15.77
2018-04-15T16:58:12.117Z,13.81
2018-04-15T17:04:00.133Z,16.29
2018-04-15T17:09:50.815Z,12.65
2018-04-15T17:15:41.565Z,22.69
2018-04-15T17:21:32.262Z,14.63
2018-04-15T17:27:22.977Z,12.67
2018-04-15T17:33:13.691Z,21.52
2018-04-15T17:39:04.399Z,20.9
2018-04-15T17:44:55.119Z,15.1
2018-04-15T17:50:45.862Z,18.35
2018-04-15T17:56:36.558Z,18.84
2018-04-15T18:02:27.263Z,16.65
2018-04-15T18:08:18.046Z,17.36
2018-04-15T18:14:08.682Z,14.33
2018-04-15T18:19:59.390Z,17.17
2018-04-15T18:25:50.143Z,13.35
2018-04-15T18:31:40.849Z,26.92
2018-04-15T18:37:31.619Z,25.83
2018-04-15T18:43:22.267Z,19.6
2018-04-15T18:49:12.986Z,14.55
2018-04-15T18:55:03.664Z,26.83
2018-04-15T19:00:54.423Z,21.19
2018-04-15T19:06:45.136Z,21.48
2018-04-15T19:12:35.919Z,28.45
2018-04-15T19:18:26.695Z,17.85
2018-04-15T19:24:17.381Z,46.06
2018-04-15T19:30:08.198Z,35.72
2018-04-15T19:35:58.858Z,46.18
2018-04-15T19:41:49.550Z,39.04
2018-04-15T19:47:40.221Z,53.09
2018-04-15T19:53:31.000Z,51.01
2018-04-15T19:59:21.669Z,32.96
2018-04-15T20:05:12.371Z,32.26
2018-04-15T20:11:03.069Z,21.89
2018-04-15T20:16:53.811Z,36.7
2018-04-15T20:22:44.577Z,28.45
2018-04-15T20:28:35.211Z,14.15
2018-04-15T20:34:25.938Z,17.54
2018-04-15T20:40:16.651Z,19.82
2018-04-15T20:46:11.884Z,18.81
2018-04-15T20:51:58.111Z,16.43
2018-04-15T20:57:48.786Z,15.35
2018-04-15T21:03:39.553Z,17.69
2018-04-15T21:09:30.231Z,11.51
2018-04-15T21:15:20.972Z,15.24
2018-04-15T21:21:12.312Z,15.74
2018-04-15T21:27:02.393Z,12.35
2018-04-15T21:32:53.116Z,20.2
2018-04-15T21:38:43.804Z,16.8
2018-04-15T21:44:34.501Z,17.94
2018-04-15T21:50:25.206Z,18.39
2018-04-15T21:56:15.974Z,19.31
2018-04-15T22:02:06.653Z,24.55
2018-04-15T22:07:57.365Z,17.28
2018-04-15T22:13:48.103Z,18.24
2018-04-15T22:19:38.821Z,23.01
2018-04-15T22:25:29.516Z,22.41
2018-04-15T22:31:20.196Z,18.49
2018-04-15T22:37:10.959Z,18.6
2018-04-15T22:43:01.657Z,18.46
2018-04-15T22:48:52.404Z,16.39
2018-04-15T22:54:43.105Z,14.86
2018-04-15T23:00:33.835Z,18.68
2018-04-15T23:06:24.470Z,14.71
2018-04-15T23:12:15.253Z,13.48
2018-04-15T23:18:05.915Z,18.1
2018-04-15T23:23:56.611Z,14.04
2018-04-15T23:29:47.337Z,18
2018-04-15T23:35:38.075Z,15.36
2018-04-15T23:41:28.769Z,18.43
2018-04-15T23:47:19.518Z,14.07
2018-04-15T23:53:10.200Z,17.16
2018-04-15T23:59:00.866Z,13.22
